Time;durP1;ratioP1;P1;durP2;ratioP2;P2;SDS_P1;SDS_P2;PMS_P1;PMS_P2;Temp;Humidity;BMP_temperature;BMP_pressure;BME280_temperature;BME280_humidity;BME280_pressure;Samples;Min_cycle;Max_cycle;Signal;HPM_P1;HPM_P2
2022/06/19 00:01:01;;;;;;;;;;;15.10;99.90;;;;;;5114496;28;19924;-68
2022/06/19 00:03:28;;;;;;;;;;;15.00;99.90;;;;;;5114436;28;19927;-68
2022/06/19 00:05:53;;;;;;;;;;;14.90;99.90;;;;;;5114246;28;19959;-68
2022/06/19 00:08:19;;;;;;;;;;;15.00;99.90;;;;;;5114441;28;19955;-67
2022/06/19 00:10:44;;;;;;;;;;;14.90;99.90;;;;;;5114143;28;20000;-67
2022/06/19 00:13:10;;;;;;;;;;;15.00;99.90;;;;;;5114003;28;20284;-68
2022/06/19 00:15:35;;;;;;;;;;;15.00;99.90;;;;;;5114171;28;19930;-67
2022/06/19 00:18:01;;;;;;;;;;;15.00;99.90;;;;;;5114142;28;19920;-67
2022/06/19 00:20:26;;;;;;;;;;;14.90;99.90;;;;;;5112723;28;19924;-68
2022/06/19 00:22:52;;;;;;;;;;;15.00;99.90;;;;;;5113880;28;19920;-68
2022/06/19 00:25:18;;;;;;;;;;;15.00;99.90;;;;;;5114039;28;19920;-68
2022/06/19 00:27:44;;;;;;;;;;;14.90;99.90;;;;;;5114081;28;19920;-67
2022/06/19 00:30:11;;;;;;;;;;;14.90;99.90;;;;;;5112540;28;20535;-67
2022/06/19 00:32:37;;;;;;;;;;;14.80;99.90;;;;;;5113732;28;19955;-68
2022/06/19 00:35:02;;;;;;;;;;;14.90;99.90;;;;;;5113588;28;19966;-68
2022/06/19 00:37:29;;;;;;;;;;;14.80;99.90;;;;;;5113770;28;20451;-68
2022/06/19 00:39:55;;;;;;;;;;;14.80;99.90;;;;;;5113624;28;20399;-68
2022/06/19 00:42:24;;;;;;;;;;;14.80;99.90;;;;;;5112464;28;19924;-68
2022/06/19 00:44:53;;;;;;;;;;;14.70;99.90;;;;;;5113603;28;19924;-67
2022/06/19 00:47:21;;;;;;;;;;;14.80;99.90;;;;;;5113563;28;19927;-68
2022/06/19 00:49:49;;;;;;;;;;;14.70;99.90;;;;;;5113140;28;20307;-67
2022/06/19 00:52:16;;;;;;;;;;;14.70;99.90;;;;;;5113579;28;19974;-68
2022/06/19 00:54:44;;;;;;;;;;;14.70;99.90;;;;;;5113596;28;19928;-67
2022/06/19 00:57:11;;;;;;;;;;;14.70;99.90;;;;;;5113502;28;19920;-67
2022/06/19 00:59:37;;;;;;;;;;;14.80;99.90;;;;;;5113103;28;19919;-67
2022/06/19 01:02:03;;;;;;;;;;;14.80;99.90;;;;;;5113419;28;19920;-67
2022/06/19 01:04:37;;;;;;;;;;;14.80;99.90;;;;;;5113634;28;19926;-68
2022/06/19 01:07:03;;;;;;;;;;;14.80;99.90;;;;;;5113376;28;19974;-67
2022/06/19 01:09:28;;;;;;;;;;;14.80;99.90;;;;;;5113008;28;19920;-67
2022/06/19 01:11:54;;;;;;;;;;;14.80;99.90;;;;;;5113064;28;20397;-67
2022/06/19 01:14:22;;;;;;;;;;;14.80;99.90;;;;;;5112883;28;19926;-67
2022/06/19 01:16:48;;;;;;;;;;;14.80;99.90;;;;;;5112892;28;19927;-66
2022/06/19 01:19:19;;;;;;;;;;;14.80;99.90;;;;;;5112858;28;19919;-67
2022/06/19 01:21:48;;;;;;;;;;;14.80;99.90;;;;;;5113057;28;20003;-66
2022/06/19 01:24:14;;;;;;;;;;;14.70;99.90;;;;;;5094785;28;19927;-66
2022/06/19 01:26:42;;;;;;;;;;;14.70;99.90;;;;;;5112612;28;19919;-67
2022/06/19 01:29:08;;;;;;;;;;;14.70;99.90;;;;;;5112285;28;19919;-66
2022/06/19 01:31:36;;;;;;;;;;;14.70;99.90;;;;;;5112501;28;20061;-67
2022/06/19 01:34:26;;;;;;;;;;;14.70;99.90;;;;;;5112689;28;19924;-66
2022/06/19 01:36:49;;;;;;;;;;;14.70;99.90;;;;;;5112484;28;19919;-66
2022/06/19 01:39:15;;;;;;;;;;;14.70;99.90;;;;;;5112324;28;19919;-66
2022/06/19 01:41:40;;;;;;;;;;;14.70;99.90;;;;;;5112394;28;20376;-66
2022/06/19 01:44:06;;;;;;;;;;;14.80;99.90;;;;;;5112230;28;19920;-66
2022/06/19 01:46:31;;;;;;;;;;;14.80;99.90;;;;;;5113125;28;19970;-66
2022/06/19 01:48:57;;;;;;;;;;;14.80;99.90;;;;;;5112462;28;19919;-66
2022/06/19 01:51:22;;;;;;;;;;;14.80;99.90;;;;;;5112707;28;19941;-66
2022/06/19 01:53:50;;;;;;;;;;;14.80;99.90;;;;;;5112479;28;20406;-66
2022/06/19 01:56:16;;;;;;;;;;;14.80;99.90;;;;;;5111005;28;20396;-65
2022/06/19 01:58:47;;;;;;;;;;;14.70;99.90;;;;;;5111919;28;19923;-65
2022/06/19 02:01:13;;;;;;;;;;;14.70;99.90;;;;;;5112104;28;20440;-66
2022/06/19 02:03:42;;;;;;;;;;;14.80;99.90;;;;;;5112179;28;19927;-66
2022/06/19 02:06:09;;;;;;;;;;;14.70;99.90;;;;;;5112237;28;19965;-66
2022/06/19 02:08:35;;;;;;;;;;;14.70;99.90;;;;;;5112008;28;20311;-66
2022/06/19 02:11:01;;;;;;;;;;;14.70;99.90;;;;;;5111964;28;19924;-67
2022/06/19 02:13:27;;;;;;;;;;;14.70;99.90;;;;;;5111967;28;19969;-66
2022/06/19 02:15:53;;;;;;;;;;;14.70;99.90;;;;;;5112111;28;20287;-66
2022/06/19 02:18:31;;;;;;;;;;;14.70;99.90;;;;;;5111736;28;19920;-66
2022/06/19 02:20:56;;;;;;;;;;;14.70;99.90;;;;;;5111976;28;19949;-65
2022/06/19 02:23:25;;;;;;;;;;;14.70;99.90;;;;;;5111633;28;19924;-65
2022/06/19 02:25:51;;;;;;;;;;;14.60;99.90;;;;;;5111975;28;19923;-65
2022/06/19 02:28:18;;;;;;;;;;;14.60;99.90;;;;;;5110601;28;19920;-67
2022/06/19 02:30:44;;;;;;;;;;;14.60;99.90;;;;;;5111617;28;19988;-66
2022/06/19 02:33:12;;;;;;;;;;;14.60;99.90;;;;;;5110309;28;19923;-66
2022/06/19 02:35:38;;;;;;;;;;;14.50;99.90;;;;;;5111590;28;20379;-65
2022/06/19 02:38:05;;;;;;;;;;;14.60;99.90;;;;;;5111620;28;20007;-66
2022/06/19 02:40:40;;;;;;;;;;;14.60;99.90;;;;;;5111514;28;19931;-66
2022/06/19 02:43:17;;;;;;;;;;;14.60;99.90;;;;;;5111763;28;19932;-67
2022/06/19 02:45:42;;;;;;;;;;;14.60;99.90;;;;;;5115664;28;19926;-65
2022/06/19 02:48:14;;;;;;;;;;;14.50;99.90;;;;;;5115890;28;19919;-66
2022/06/19 02:50:42;;;;;;;;;;;14.60;99.90;;;;;;5115776;28;20280;-67
2022/06/19 02:53:07;;;;;;;;;;;14.60;99.90;;;;;;5115831;28;19950;-68
2022/06/19 02:55:33;;;;;;;;;;;14.60;99.90;;;;;;5115993;28;19920;-67
2022/06/19 02:57:58;;;;;;;;;;;14.70;99.90;;;;;;5115854;28;20324;-67
2022/06/19 03:00:25;;;;;;;;;;;14.70;99.90;;;;;;5115600;28;20433;-67
2022/06/19 03:02:52;;;;;;;;;;;14.60;99.90;;;;;;5115835;28;19932;-67
2022/06/19 03:05:20;;;;;;;;;;;14.60;99.90;;;;;;5115892;27;19962;-67
2022/06/19 03:07:46;;;;;;;;;;;14.70;99.90;;;;;;5115871;28;19923;-67
2022/06/19 03:10:12;;;;;;;;;;;14.70;99.90;;;;;;5115722;28;19923;-68
2022/06/19 03:12:37;;;;;;;;;;;14.70;99.90;;;;;;5114414;28;19924;-67
2022/06/19 03:15:03;;;;;;;;;;;14.70;99.90;;;;;;5115563;28;19920;-66
2022/06/19 03:17:29;;;;;;;;;;;14.70;99.90;;;;;;5115175;28;20352;-66
2022/06/19 03:19:54;;;;;;;;;;;14.60;99.90;;;;;;5115159;28;19943;-67
2022/06/19 03:22:20;;;;;;;;;;;14.60;99.90;;;;;;5115326;28;20007;-66
2022/06/19 03:24:45;;;;;;;;;;;14.60;99.90;;;;;;5115214;28;20011;-66
2022/06/19 03:27:11;;;;;;;;;;;14.60;99.90;;;;;;5115030;28;19926;-67
2022/06/19 03:29:37;;;;;;;;;;;14.60;99.90;;;;;;5113275;28;19972;-67
2022/06/19 03:32:03;;;;;;;;;;;14.70;99.90;;;;;;5111864;28;20014;-67
2022/06/19 03:34:28;;;;;;;;;;;14.70;99.90;;;;;;5113447;27;19931;-67
2022/06/19 03:36:55;;;;;;;;;;;14.70;99.90;;;;;;5114863;28;19920;-66
2022/06/19 03:39:21;;;;;;;;;;;14.70;99.90;;;;;;5114738;28;19968;-66
2022/06/19 03:41:46;;;;;;;;;;;14.70;99.90;;;;;;5114860;28;19920;-67
2022/06/19 03:44:12;;;;;;;;;;;14.80;99.90;;;;;;5111902;28;20431;-66
2022/06/19 03:46:37;;;;;;;;;;;14.80;99.90;;;;;;5112850;28;20003;-66
2022/06/19 03:49:03;;;;;;;;;;;14.70;99.90;;;;;;5114392;28;19942;-66
2022/06/19 03:51:29;;;;;;;;;;;14.70;99.90;;;;;;5113547;28;20006;-67
2022/06/19 03:53:55;;;;;;;;;;;14.60;99.90;;;;;;5114663;28;19927;-66
2022/06/19 03:56:22;;;;;;;;;;;14.60;99.90;;;;;;5114590;27;19923;-66
2022/06/19 03:58:47;;;;;;;;;;;14.60;99.90;;;;;;5114195;28;19924;-66
2022/06/19 04:01:18;;;;;;;;;;;14.50;99.90;;;;;;5114409;28;19965;-67
2022/06/19 04:03:43;;;;;;;;;;;14.50;99.90;;;;;;5114496;28;20322;-66
2022/06/19 04:06:12;;;;;;;;;;;14.60;99.90;;;;;;5113888;28;21343;-66
2022/06/19 04:08:38;;;;;;;;;;;14.60;99.90;;;;;;5114203;28;19927;-67
2022/06/19 04:11:04;;;;;;;;;;;14.50;99.90;;;;;;5114280;28;19923;-66
2022/06/19 04:13:31;;;;;;;;;;;14.60;99.90;;;;;;5113980;28;19931;-66
2022/06/19 04:15:57;;;;;;;;;;;14.60;99.90;;;;;;5110159;28;19926;-67
2022/06/19 04:18:22;;;;;;;;;;;14.60;99.90;;;;;;5113463;28;19923;-66
2022/06/19 04:20:48;;;;;;;;;;;14.50;99.90;;;;;;5113987;28;19920;-67
2022/06/19 04:23:13;;;;;;;;;;;14.60;99.90;;;;;;5114161;28;19980;-68
2022/06/19 04:25:45;;;;;;;;;;;14.50;99.90;;;;;;5114065;28;19919;-66
2022/06/19 04:28:11;;;;;;;;;;;14.50;99.90;;;;;;5113900;28;19923;-67
2022/06/19 04:30:36;;;;;;;;;;;14.50;99.90;;;;;;5112258;28;19924;-67
2022/06/19 04:33:02;;;;;;;;;;;14.40;99.90;;;;;;5113769;28;19927;-66
2022/06/19 04:35:28;;;;;;;;;;;14.40;99.90;;;;;;5113599;28;19920;-66
2022/06/19 04:37:53;;;;;;;;;;;14.30;99.90;;;;;;5113863;28;19927;-66
2022/06/19 04:40:19;;;;;;;;;;;14.20;99.90;;;;;;5113426;28;19920;-66
2022/06/19 04:42:44;;;;;;;;;;;14.10;99.90;;;;;;5113661;28;19919;-67
2022/06/19 04:45:10;;;;;;;;;;;14.10;99.90;;;;;;5113487;28;20400;-67
2022/06/19 04:47:35;;;;;;;;;;;14.00;99.90;;;;;;5113629;28;19978;-66
2022/06/19 04:50:01;;;;;;;;;;;14.00;99.90;;;;;;5113370;28;19976;-67
2022/06/19 04:52:26;;;;;;;;;;;14.10;99.90;;;;;;5113436;28;20414;-67
2022/06/19 04:54:52;;;;;;;;;;;14.20;99.90;;;;;;5113363;28;20448;-66
2022/06/19 04:57:17;;;;;;;;;;;14.30;99.90;;;;;;5113403;28;20003;-66
2022/06/19 04:59:43;;;;;;;;;;;14.30;99.90;;;;;;5112865;28;19965;-67
2022/06/19 05:02:12;;;;;;;;;;;14.40;99.90;;;;;;5113244;28;20010;-67
2022/06/19 05:04:38;;;;;;;;;;;14.60;99.90;;;;;;5111786;28;19920;-66
2022/06/19 05:07:03;;;;;;;;;;;14.60;99.90;;;;;;5112664;28;20300;-66
2022/06/19 05:09:29;;;;;;;;;;;14.80;99.90;;;;;;5112689;28;20010;-67
2022/06/19 05:11:54;;;;;;;;;;;15.00;99.90;;;;;;5112958;28;19923;-67
2022/06/19 05:14:20;;;;;;;;;;;15.10;99.90;;;;;;5111910;28;19924;-66
2022/06/19 05:16:45;;;;;;;;;;;15.30;99.90;;;;;;5113128;28;19924;-66
2022/06/19 05:19:11;;;;;;;;;;;15.50;99.90;;;;;;5112720;28;19920;-66
2022/06/19 05:21:37;;;;;;;;;;;15.70;99.90;;;;;;5112816;28;19927;-66
2022/06/19 05:24:02;;;;;;;;;;;15.80;99.90;;;;;;5111452;28;19920;-67
2022/06/19 05:26:29;;;;;;;;;;;16.00;99.90;;;;;;5111512;28;19920;-67
2022/06/19 05:28:56;;;;;;;;;;;16.00;99.90;;;;;;5112452;28;19923;-68
2022/06/19 05:31:21;;;;;;;;;;;15.90;99.90;;;;;;5112916;28;19927;-68
2022/06/19 05:33:47;;;;;;;;;;;15.70;99.90;;;;;;5112692;28;19924;-66
2022/06/19 05:36:13;;;;;;;;;;;15.80;99.90;;;;;;5112838;28;19920;-66
2022/06/19 05:38:38;;;;;;;;;;;15.80;99.90;;;;;;5112318;28;19919;-67
2022/06/19 05:41:03;;;;;;;;;;;15.70;99.90;;;;;;5112557;28;19920;-67
2022/06/19 05:43:30;;;;;;;;;;;15.60;99.90;;;;;;5112353;28;20315;-67
2022/06/19 05:46:01;;;;;;;;;;;15.50;99.90;;;;;;5112677;28;19931;-68
2022/06/19 05:48:27;;;;;;;;;;;15.30;99.90;;;;;;5112076;28;19973;-67
2022/06/19 05:51:04;;;;;;;;;;;15.20;99.90;;;;;;5112356;28;19959;-67
2022/06/19 05:53:30;;;;;;;;;;;15.30;99.90;;;;;;5112135;28;19934;-67
2022/06/19 05:55:56;;;;;;;;;;;15.30;99.90;;;;;;5111241;28;19928;-68
2022/06/19 05:58:22;;;;;;;;;;;15.20;99.90;;;;;;5112219;28;20003;-67
2022/06/19 06:00:47;;;;;;;;;;;15.30;99.90;;;;;;5112203;28;19920;-67
2022/06/19 06:03:14;;;;;;;;;;;15.40;99.90;;;;;;5112182;28;19927;-67
2022/06/19 06:05:40;;;;;;;;;;;15.30;99.90;;;;;;5112157;28;19926;-67
2022/06/19 06:08:05;;;;;;;;;;;15.30;99.90;;;;;;5112007;28;20303;-66
2022/06/19 06:10:31;;;;;;;;;;;15.40;99.90;;;;;;5111684;28;19920;-67
2022/06/19 06:12:56;;;;;;;;;;;15.40;99.90;;;;;;5110722;28;19924;-67
2022/06/19 06:15:22;;;;;;;;;;;15.40;99.90;;;;;;5111856;28;19931;-66
2022/06/19 06:17:47;;;;;;;;;;;15.40;99.90;;;;;;5110737;28;19926;-66
2022/06/19 06:20:13;;;;;;;;;;;15.30;99.90;;;;;;5111019;28;19924;-67
2022/06/19 06:22:38;;;;;;;;;;;15.30;99.90;;;;;;5111844;28;20387;-67
2022/06/19 06:25:04;;;;;;;;;;;15.30;99.90;;;;;;5111702;28;19998;-66
2022/06/19 06:27:30;;;;;;;;;;;15.20;99.90;;;;;;5112074;28;19920;-67
2022/06/19 06:29:55;;;;;;;;;;;15.10;99.90;;;;;;5111678;28;19930;-67
2022/06/19 06:32:21;;;;;;;;;;;15.00;99.90;;;;;;5111712;28;19924;-67
2022/06/19 06:34:46;;;;;;;;;;;15.00;99.90;;;;;;5111660;28;19920;-67
2022/06/19 06:37:11;;;;;;;;;;;14.90;99.90;;;;;;5111637;28;19923;-67
2022/06/19 06:39:37;;;;;;;;;;;14.90;99.90;;;;;;5111285;28;19919;-67
2022/06/19 06:42:03;;;;;;;;;;;14.90;99.90;;;;;;5111818;28;19993;-68
2022/06/19 06:44:28;;;;;;;;;;;14.90;99.90;;;;;;5111421;28;19939;-67
2022/06/19 06:46:54;;;;;;;;;;;14.90;99.90;;;;;;5111751;28;19920;-67
2022/06/19 06:49:19;;;;;;;;;;;14.80;99.90;;;;;;5111255;28;19970;-67
2022/06/19 06:51:45;;;;;;;;;;;14.80;99.90;;;;;;5111543;28;20429;-67
2022/06/19 06:54:10;;;;;;;;;;;14.80;99.90;;;;;;5111393;28;20088;-66
2022/06/19 06:56:36;;;;;;;;;;;14.80;99.90;;;;;;5111756;28;19955;-67
2022/06/19 06:59:02;;;;;;;;;;;14.80;99.90;;;;;;5110026;28;19930;-68
2022/06/19 07:01:29;;;;;;;;;;;14.90;99.90;;;;;;5111547;28;19977;-67
2022/06/19 07:03:55;;;;;;;;;;;14.80;99.90;;;;;;5111478;28;19920;-67
2022/06/19 07:06:25;;;;;;;;;;;14.80;99.90;;;;;;5110125;28;19970;-67
2022/06/19 07:08:51;;;;;;;;;;;14.80;99.90;;;;;;5109711;28;19928;-66
2022/06/19 07:11:19;;;;;;;;;;;14.80;99.90;;;;;;5111353;28;19964;-67
2022/06/19 07:13:45;;;;;;;;;;;14.80;99.90;;;;;;5111256;28;19950;-67
2022/06/19 07:16:10;;;;;;;;;;;14.70;99.90;;;;;;5111430;28;19924;-67
2022/06/19 07:18:36;;;;;;;;;;;14.70;99.90;;;;;;5111061;28;19920;-67
2022/06/19 07:21:02;;;;;;;;;;;14.80;99.90;;;;;;5109910;28;19923;-67
2022/06/19 07:23:27;;;;;;;;;;;14.80;99.90;;;;;;5109727;28;19965;-67
2022/06/19 07:25:52;;;;;;;;;;;14.80;99.90;;;;;;5111438;28;19964;-68
2022/06/19 07:28:18;;;;;;;;;;;14.80;99.90;;;;;;5111100;28;20019;-68
2022/06/19 07:30:45;;;;;;;;;;;14.80;99.90;;;;;;5113109;28;19919;-67
2022/06/19 07:33:10;;;;;;;;;;;14.80;99.90;;;;;;5114902;28;19949;-68
2022/06/19 07:35:36;;;;;;;;;;;14.80;99.90;;;;;;5114983;28;19924;-66
2022/06/19 07:38:01;;;;;;;;;;;14.80;99.90;;;;;;5114872;28;19924;-68
2022/06/19 07:40:27;;;;;;;;;;;14.80;99.90;;;;;;5114901;28;20276;-67
2022/06/19 07:42:53;;;;;;;;;;;14.80;99.90;;;;;;5115072;28;19927;-68
2022/06/19 07:45:18;;;;;;;;;;;14.80;99.90;;;;;;5114716;28;20383;-66
2022/06/19 07:50:28;;;;;;;;;;;14.90;99.90;;;;;;5114355;28;19920;-66
2022/06/19 07:52:53;;;;;;;;;;;14.90;99.90;;;;;;5114775;28;19931;-66
2022/06/19 07:55:21;;;;;;;;;;;14.90;99.90;;;;;;5114663;28;19919;-67
2022/06/19 07:57:47;;;;;;;;;;;15.00;99.90;;;;;;5114613;28;19969;-67
2022/06/19 08:00:16;;;;;;;;;;;15.00;99.90;;;;;;5114406;28;20008;-67
2022/06/19 08:02:46;;;;;;;;;;;14.90;99.90;;;;;;5113193;28;19931;-66
2022/06/19 08:05:12;;;;;;;;;;;14.90;99.90;;;;;;5114272;28;19927;-67
2022/06/19 08:07:38;;;;;;;;;;;15.00;99.90;;;;;;5114512;28;19920;-68
2022/06/19 08:10:04;;;;;;;;;;;15.00;99.90;;;;;;5114210;28;20278;-67
2022/06/19 08:12:30;;;;;;;;;;;15.00;99.90;;;;;;5114211;28;19967;-67
2022/06/19 08:14:55;;;;;;;;;;;14.90;99.90;;;;;;5114233;28;19931;-67
2022/06/19 08:17:22;;;;;;;;;;;14.90;99.90;;;;;;5114236;28;19927;-67
2022/06/19 08:19:47;;;;;;;;;;;15.00;99.90;;;;;;5112936;28;20605;-67
2022/06/19 08:22:13;;;;;;;;;;;15.00;99.90;;;;;;5114347;28;19967;-67
2022/06/19 08:24:38;;;;;;;;;;;15.00;99.90;;;;;;5114186;28;19988;-67
2022/06/19 08:27:07;;;;;;;;;;;15.00;99.90;;;;;;5114112;28;19920;-67
2022/06/19 08:29:33;;;;;;;;;;;15.10;99.90;;;;;;5113721;28;19924;-67
2022/06/19 08:31:59;;;;;;;;;;;15.10;99.90;;;;;;5113892;27;20454;-67
2022/06/19 08:34:26;;;;;;;;;;;15.10;99.90;;;;;;5113579;28;20006;-67
2022/06/19 08:36:51;;;;;;;;;;;15.10;99.90;;;;;;5114054;28;19966;-67
2022/06/19 08:39:17;;;;;;;;;;;15.10;99.90;;;;;;5113532;28;19920;-67
2022/06/19 08:41:58;;;;;;;;;;;15.20;99.90;;;;;;5112864;28;20297;-67
2022/06/19 08:44:42;;;;;;;;;;;15.20;99.90;;;;;;5113634;28;19921;-67
2022/06/19 08:47:18;;;;;;;;;;;15.20;99.90;;;;;;5113786;28;19926;-67
2022/06/19 08:50:04;;;;;;;;;;;15.20;99.90;;;;;;5113391;28;19920;-67
2022/06/19 08:52:32;;;;;;;;;;;15.30;99.90;;;;;;5113491;28;20307;-66
2022/06/19 08:55:16;;;;;;;;;;;15.30;99.90;;;;;;5113292;28;20376;-67
2022/06/19 08:57:57;;;;;;;;;;;15.40;99.90;;;;;;5113304;28;20488;-67
2022/06/19 09:00:28;;;;;;;;;;;15.40;99.90;;;;;;5113305;28;20382;-67
2022/06/19 09:02:56;;;;;;;;;;;15.30;99.90;;;;;;5113376;28;19980;-67
2022/06/19 09:05:51;;;;;;;;;;;15.40;99.90;;;;;;5113041;28;19969;-66
2022/06/19 09:08:35;;;;;;;;;;;15.50;99.90;;;;;;5089929;28;19919;-69
2022/06/19 09:11:01;;;;;;;;;;;15.60;99.90;;;;;;5113078;28;20429;-68
2022/06/19 09:13:36;;;;;;;;;;;15.70;99.90;;;;;;5112958;28;19924;-67
2022/06/19 09:16:14;;;;;;;;;;;15.70;99.90;;;;;;5113353;27;19923;-68
2022/06/19 09:18:57;;;;;;;;;;;15.80;99.90;;;;;;5112852;28;19972;-67
2022/06/19 09:21:29;;;;;;;;;;;15.80;99.90;;;;;;5113017;28;20012;-67
2022/06/19 09:24:13;;;;;;;;;;;15.80;99.90;;;;;;5112941;28;20395;-67
2022/06/19 09:26:41;;;;;;;;;;;15.80;99.90;;;;;;5112996;28;19920;-67
2022/06/19 09:29:22;;;;;;;;;;;15.90;99.90;;;;;;5112687;28;19948;-67
2022/06/19 09:31:53;;;;;;;;;;;16.00;99.90;;;;;;5112802;28;19926;-67
2022/06/19 09:34:36;;;;;;;;;;;15.80;99.90;;;;;;5112555;28;20391;-67
2022/06/19 09:37:05;;;;;;;;;;;15.80;99.90;;;;;;5112990;28;19920;-67
2022/06/19 09:39:47;;;;;;;;;;;15.80;99.90;;;;;;5112580;28;20053;-67
2022/06/19 09:42:25;;;;;;;;;;;15.80;99.90;;;;;;5112764;28;19920;-66
2022/06/19 09:45:05;;;;;;;;;;;15.90;99.90;;;;;;5111332;28;19924;-67
2022/06/19 09:47:38;;;;;;;;;;;16.10;99.90;;;;;;5112657;28;19931;-67
2022/06/19 09:50:12;;;;;;;;;;;16.00;99.90;;;;;;5094152;28;19927;-67
2022/06/19 09:52:42;;;;;;;;;;;15.90;99.90;;;;;;5112442;28;20027;-68
2022/06/19 09:55:11;;;;;;;;;;;16.00;99.90;;;;;;5112356;28;20299;-67
2022/06/19 09:57:43;;;;;;;;;;;15.90;99.90;;;;;;5112421;28;19968;-67
2022/06/19 10:00:13;;;;;;;;;;;16.00;99.90;;;;;;5110791;28;19927;-67
2022/06/19 10:02:57;;;;;;;;;;;16.00;99.90;;;;;;5094288;28;20056;-67
2022/06/19 10:05:41;;;;;;;;;;;15.90;99.90;;;;;;5111983;28;19927;-67
2022/06/19 10:08:22;;;;;;;;;;;16.00;99.90;;;;;;5112085;28;20390;-67
2022/06/19 10:10:50;;;;;;;;;;;16.00;99.90;;;;;;5112102;28;19931;-66
2022/06/19 10:13:28;;;;;;;;;;;15.90;99.90;;;;;;5110665;28;19953;-67
2022/06/19 10:15:55;;;;;;;;;;;15.80;99.90;;;;;;5112120;28;19920;-67
2022/06/19 10:18:35;;;;;;;;;;;15.90;99.90;;;;;;5111749;28;19975;-68
2022/06/19 10:21:03;;;;;;;;;;;15.90;99.90;;;;;;5112214;28;19930;-67
2022/06/19 10:23:35;;;;;;;;;;;15.90;99.90;;;;;;5111993;28;19919;-67
2022/06/19 10:26:14;;;;;;;;;;;15.90;99.90;;;;;;5111989;28;19927;-67
2022/06/19 10:29:05;;;;;;;;;;;15.90;99.90;;;;;;5110316;28;19919;-67
2022/06/19 10:31:46;;;;;;;;;;;15.80;99.90;;;;;;5110493;28;19930;-67
2022/06/19 10:34:29;;;;;;;;;;;15.90;99.90;;;;;;5111732;28;19928;-67
2022/06/19 10:37:04;;;;;;;;;;;15.80;99.90;;;;;;5110641;28;19927;-67
2022/06/19 10:39:36;;;;;;;;;;;16.00;99.90;;;;;;5111659;28;19934;-68
2022/06/19 10:42:08;;;;;;;;;;;15.90;99.90;;;;;;5111762;28;19962;-67
2022/06/19 10:44:33;;;;;;;;;;;15.90;99.90;;;;;;5111460;28;20388;-67
2022/06/19 10:47:05;;;;;;;;;;;16.00;99.90;;;;;;5111637;28;19920;-67
2022/06/19 10:49:35;;;;;;;;;;;16.00;99.90;;;;;;5111336;28;20284;-66
2022/06/19 10:52:19;;;;;;;;;;;16.00;99.90;;;;;;5111645;28;20050;-66
2022/06/19 10:54:53;;;;;;;;;;;15.90;99.90;;;;;;5111375;28;19920;-66
2022/06/19 10:57:26;;;;;;;;;;;15.90;99.90;;;;;;5110374;28;19920;-66
2022/06/19 10:59:52;;;;;;;;;;;15.80;99.90;;;;;;5111252;28;20332;-67
2022/06/19 11:05:16;;;;;;;;;;;15.80;99.90;;;;;;5112709;28;19930;-67
2022/06/19 11:07:42;;;;;;;;;;;15.80;99.90;;;;;;5114334;28;19923;-67
2022/06/19 11:10:14;;;;;;;;;;;15.80;99.90;;;;;;5115314;28;20380;-67
2022/06/19 11:12:45;;;;;;;;;;;15.80;99.90;;;;;;5115619;27;20061;-68
2022/06/19 11:15:17;;;;;;;;;;;15.80;99.90;;;;;;5115731;28;19966;-67
2022/06/19 11:17:43;;;;;;;;;;;15.80;99.90;;;;;;5114688;28;20269;-67
2022/06/19 11:20:26;;;;;;;;;;;15.90;99.90;;;;;;5115225;28;19965;-67
2022/06/19 11:23:12;;;;;;;;;;;15.90;99.90;;;;;;5115494;28;19970;-66
2022/06/19 11:25:39;;;;;;;;;;;15.90;99.90;;;;;;5100767;28;20006;-67
2022/06/19 11:28:04;;;;;;;;;;;16.00;99.90;;;;;;5115260;28;19920;-68
2022/06/19 11:30:45;;;;;;;;;;;16.00;99.90;;;;;;5113734;28;19939;-66
2022/06/19 11:33:15;;;;;;;;;;;16.00;99.90;;;;;;5115001;28;19927;-67
2022/06/19 11:35:46;;;;;;;;;;;16.00;99.90;;;;;;5115177;28;19923;-67
2022/06/19 11:38:12;;;;;;;;;;;16.10;99.90;;;;;;5114044;28;20319;-67
2022/06/19 11:40:42;;;;;;;;;;;16.10;99.90;;;;;;5114880;28;20295;-66
2022/06/19 11:43:28;;;;;;;;;;;16.10;99.90;;;;;;5115020;28;19943;-66
2022/06/19 11:46:04;;;;;;;;;;;16.00;99.90;;;;;;5114340;28;20285;-67
2022/06/19 11:48:30;;;;;;;;;;;16.00;99.90;;;;;;5113195;28;19919;-67
2022/06/19 11:50:56;;;;;;;;;;;16.00;99.90;;;;;;5114922;28;19953;-67
2022/06/19 11:53:34;;;;;;;;;;;16.10;99.90;;;;;;5114764;28;19932;-67
2022/06/19 11:56:13;;;;;;;;;;;16.10;99.90;;;;;;5114734;28;19965;-67
2022/06/19 11:58:40;;;;;;;;;;;16.20;99.90;;;;;;5114194;28;20399;-67
2022/06/19 12:01:16;;;;;;;;;;;16.10;99.90;;;;;;5114678;28;20010;-67
2022/06/19 12:03:47;;;;;;;;;;;16.10;99.90;;;;;;5114521;28;20010;-68
2022/06/19 12:06:14;;;;;;;;;;;16.10;99.90;;;;;;5114554;28;19927;-67
2022/06/19 12:09:00;;;;;;;;;;;16.10;99.90;;;;;;5114071;28;19967;-68
2022/06/19 12:11:34;;;;;;;;;;;16.10;99.90;;;;;;5114655;28;19930;-67
2022/06/19 12:13:59;;;;;;;;;;;16.00;99.90;;;;;;5112938;28;20304;-68
2022/06/19 12:16:25;;;;;;;;;;;16.10;99.90;;;;;;5113050;28;19927;-66
2022/06/19 12:18:50;;;;;;;;;;;16.10;99.90;;;;;;5113893;28;19931;-67
2022/06/19 12:21:16;;;;;;;;;;;16.10;99.90;;;;;;5114194;28;19930;-68
2022/06/19 12:23:44;;;;;;;;;;;16.10;99.90;;;;;;5114259;28;19959;-68
2022/06/19 12:26:12;;;;;;;;;;;16.10;99.90;;;;;;5114259;28;19919;-67
2022/06/19 12:28:41;;;;;;;;;;;16.10;99.90;;;;;;5113850;28;19987;-67
2022/06/19 12:31:11;;;;;;;;;;;16.10;99.90;;;;;;5112943;28;20332;-67
2022/06/19 12:33:55;;;;;;;;;;;16.20;99.90;;;;;;5113664;28;19928;-67
2022/06/19 12:36:28;;;;;;;;;;;16.20;99.90;;;;;;5114088;28;19945;-67
2022/06/19 12:38:53;;;;;;;;;;;16.30;99.90;;;;;;5113712;28;20285;-66
2022/06/19 12:41:18;;;;;;;;;;;16.50;99.90;;;;;;5113821;28;19927;-67
2022/06/19 12:43:45;;;;;;;;;;;16.50;99.90;;;;;;5113660;28;19927;-67
2022/06/19 12:46:30;;;;;;;;;;;16.50;99.90;;;;;;5113648;28;20766;-68
2022/06/19 12:49:15;;;;;;;;;;;16.60;99.90;;;;;;5112818;28;20635;-67
2022/06/19 12:51:51;;;;;;;;;;;16.50;99.90;;;;;;5113698;28;20496;-67
2022/06/19 12:54:16;;;;;;;;;;;16.60;99.90;;;;;;5113524;28;19972;-66
2022/06/19 12:56:58;;;;;;;;;;;16.90;99.90;;;;;;5113364;28;19927;-67
2022/06/19 12:59:41;;;;;;;;;;;17.10;99.90;;;;;;5113155;28;19927;-67
2022/06/19 13:02:16;;;;;;;;;;;16.90;99.90;;;;;;5113442;28;20403;-68
2022/06/19 13:04:47;;;;;;;;;;;17.00;99.90;;;;;;5113209;28;20018;-67
2022/06/19 13:07:18;;;;;;;;;;;17.00;99.90;;;;;;5113185;28;19921;-67
2022/06/19 13:09:44;;;;;;;;;;;16.90;99.90;;;;;;5113167;28;20334;-67
2022/06/19 13:12:21;;;;;;;;;;;16.90;99.90;;;;;;5113216;28;19973;-67
2022/06/19 13:15:02;;;;;;;;;;;17.00;99.90;;;;;;5111693;28;19920;-67
2022/06/19 13:17:39;;;;;;;;;;;17.30;99.90;;;;;;5113064;28;19920;-67
2022/06/19 13:20:14;;;;;;;;;;;17.30;99.90;;;;;;5113086;28;19919;-67
2022/06/19 13:22:42;;;;;;;;;;;17.20;99.90;;;;;;5113124;28;19928;-68
2022/06/19 13:25:21;;;;;;;;;;;17.20;99.90;;;;;;5112806;28;20334;-67
2022/06/19 13:27:49;;;;;;;;;;;17.30;99.90;;;;;;5112421;28;19929;-67
2022/06/19 13:30:34;;;;;;;;;;;17.20;99.90;;;;;;5112513;28;19959;-67
2022/06/19 13:33:02;;;;;;;;;;;17.20;99.90;;;;;;5112865;28;20011;-66
2022/06/19 13:35:46;;;;;;;;;;;17.60;99.90;;;;;;5111414;28;19926;-68
2022/06/19 13:38:12;;;;;;;;;;;17.60;99.90;;;;;;5112677;28;19970;-67
2022/06/19 13:40:44;;;;;;;;;;;18.00;99.90;;;;;;5111480;28;19963;-67
2022/06/19 13:43:14;;;;;;;;;;;18.10;99.90;;;;;;5112763;28;19934;-68
2022/06/19 13:45:53;;;;;;;;;;;17.90;99.90;;;;;;5112755;28;19919;-67
2022/06/19 13:48:34;;;;;;;;;;;18.10;99.90;;;;;;5112442;28;19926;-67
2022/06/19 13:51:07;;;;;;;;;;;18.20;99.90;;;;;;5112395;28;19920;-67
2022/06/19 13:53:43;;;;;;;;;;;18.00;99.90;;;;;;5112442;28;19928;-67
2022/06/19 13:56:18;;;;;;;;;;;18.00;99.90;;;;;;5111368;28;19999;-68
2022/06/19 13:59:10;;;;;;;;;;;18.00;99.90;;;;;;5111797;28;19926;-67
2022/06/19 14:01:47;;;;;;;;;;;18.20;99.90;;;;;;5012556;28;20433;-67
2022/06/19 14:07:12;;;;;;;;;;;17.70;99.90;;;;;;5029178;28;19964;-67
2022/06/19 14:09:40;;;;;;;;;;;17.90;99.90;;;;;;5012316;28;19935;-67
2022/06/19 14:12:07;;;;;;;;;;;17.90;99.90;;;;;;5028987;28;19967;-67
2022/06/19 14:14:40;;;;;;;;;;;17.90;99.90;;;;;;5029059;28;19928;-68
2022/06/19 14:17:10;;;;;;;;;;;17.80;99.90;;;;;;5029147;28;19921;-68
2022/06/19 14:19:41;;;;;;;;;;;18.00;99.90;;;;;;5012221;28;19921;-67
2022/06/19 14:22:25;;;;;;;;;;;17.80;99.90;;;;;;5028981;28;20424;-67
2022/06/19 14:25:03;;;;;;;;;;;17.80;99.90;;;;;;5012438;28;19943;-67
2022/06/19 14:27:37;;;;;;;;;;;17.60;99.90;;;;;;5028873;28;20002;-67
2022/06/19 14:30:21;;;;;;;;;;;18.00;99.90;;;;;;5028599;28;20325;-67
2022/06/19 14:32:50;;;;;;;;;;;17.80;99.90;;;;;;5028836;28;20398;-67
2022/06/19 14:35:15;;;;;;;;;;;17.90;99.90;;;;;;5012290;28;20083;-67
2022/06/19 14:37:49;;;;;;;;;;;17.80;99.90;;;;;;5045877;28;19928;-66